KMKG

Muskegon County Airport

Muskegon, Michigan, USA
METAR KMKG 221737Z 32005KT 10SM FEW012 SCT025 SCT090 BKN250 18/13 A3004 RMK AO2 T01780128
Observed Flight Rules
May-22 @ 17:37 UTC (17 minutes ago) Visual Flight Rules
Wind Visibility Clouds
320° at 5 knots 10 miles
  • Few at 1,200' AGL
  • Scattered at 2,500' AGL
  • Scattered at 9,000' AGL
  • Broken at 25,000' AGL
Temperatures Readings
Current 18°C / 64°F
Dewpoint 13°C / 55°F
Humidity 73%
Altimeter 30.04" Hg
Pressure 1017 hPa
Elevation 191
METAR KMKG 221737Z 32005KT 10SM FEW012 SCT025 SCT090 BKN250 18/13 A3004 RMK AO2 T01780128
Observed Flight Rules
May-22 @ 17:37 UTC
(17 minutes ago)
VFR
Wind Visibility
320° at 5 knots 10 miles
Clouds
  • Few at 1,200' AGL
  • Scattered at 2,500' AGL
  • Scattered at 9,000' AGL
  • Broken at 25,000' AGL
Temperature Dewpoint
18°C / 64°F 13°C / 55°F
Humidity Altimeter Pressure
73% 30.04" Hg 1017 hPa